createdAt,value
2019-04-05T00:00:01.826Z,88.81
2019-04-05T00:02:30.909Z,88.79
2019-04-05T00:04:59.872Z,88.57
2019-04-05T00:07:33.575Z,88.38
2019-04-05T00:10:03.588Z,88.50
2019-04-05T00:12:37.233Z,88.51
2019-04-05T00:15:15.256Z,88.78
2019-04-05T00:17:38.294Z,88.67
2019-04-05T00:20:12.078Z,88.74
2019-04-05T00:22:40.840Z,88.84
2019-04-05T00:25:10.129Z,88.68
2019-04-05T00:27:42.285Z,89.06
2019-04-05T00:30:16.213Z,89.10
2019-04-05T00:32:46.951Z,89.17
2019-04-05T00:35:16.456Z,89.45
2019-04-05T00:37:48.140Z,89.27
2019-04-05T00:40:17.505Z,89.21
2019-04-05T00:42:48.000Z,89.40
2019-04-05T00:45:27.592Z,89.45
2019-04-05T00:47:47.235Z,89.35
2019-04-05T00:50:17.194Z,89.20
2019-04-05T00:52:48.366Z,89.36
2019-04-05T00:55:17.341Z,89.74
2019-04-05T00:57:46.082Z,89.77
2019-04-05T01:00:17.285Z,89.44
2019-04-05T01:02:46.536Z,89.40
2019-04-05T01:05:18.416Z,89.58
2019-04-05T01:07:50.872Z,89.64
2019-04-05T01:10:21.810Z,89.50
2019-04-05T01:12:53.759Z,89.49
2019-04-05T01:15:26.064Z,89.45
2019-04-05T01:17:55.211Z,89.18
2019-04-05T01:20:27.638Z,89.26
2019-04-05T01:22:59.942Z,89.45
2019-04-05T01:25:31.845Z,89.50
2019-04-05T01:28:00.429Z,89.59
2019-04-05T01:30:32.463Z,89.08
2019-04-05T01:33:02.704Z,89.04
2019-04-05T01:35:32.934Z,88.90
2019-04-05T01:38:01.844Z,88.45
2019-04-05T01:40:33.782Z,88.57
2019-04-05T01:43:05.862Z,88.75
2019-04-05T01:45:35.370Z,88.68
2019-04-05T01:48:07.624Z,88.64
2019-04-05T01:50:40.752Z,88.55
2019-04-05T01:53:10.028Z,88.72
2019-04-05T01:55:46.101Z,88.72
2019-04-05T01:58:16.235Z,88.55
2019-04-05T02:00:49.940Z,88.83
2019-04-05T02:03:19.915Z,88.84
2019-04-05T02:05:50.000Z,88.62
2019-04-05T02:08:22.307Z,88.67
2019-04-05T02:10:58.388Z,88.90
2019-04-05T02:13:30.348Z,88.83
2019-04-05T02:16:06.041Z,88.60
2019-04-05T02:18:30.298Z,88.75
2019-04-05T02:20:59.452Z,88.91
2019-04-05T02:23:30.564Z,88.97
2019-04-05T02:26:04.935Z,89.14
2019-04-05T02:28:37.095Z,88.94
2019-04-05T02:31:07.530Z,89.05
2019-04-05T02:33:38.550Z,88.70
2019-04-05T02:36:09.463Z,88.76
2019-04-05T02:38:39.618Z,88.49
2019-04-05T02:41:10.560Z,88.53
2019-04-05T02:43:39.290Z,88.52
2019-04-05T02:46:22.662Z,88.87
2019-04-05T02:48:45.294Z,88.79
2019-04-05T02:51:15.874Z,89.03
2019-04-05T02:53:47.655Z,89.03
2019-04-05T02:56:18.666Z,88.83
2019-04-05T02:58:47.865Z,88.61
2019-04-05T03:01:22.843Z,88.76
2019-04-05T03:03:54.991Z,88.55
2019-04-05T03:06:25.698Z,88.34
2019-04-05T03:08:57.046Z,88.51
2019-04-05T03:11:30.514Z,88.40
2019-04-05T03:14:03.669Z,88.41
2019-04-05T03:16:40.961Z,88.45
2019-04-05T03:19:11.254Z,88.29
2019-04-05T03:21:44.179Z,88.21
2019-04-05T03:24:18.194Z,88.31
2019-04-05T03:26:55.544Z,88.38
2019-04-05T03:29:24.440Z,88.01
2019-04-05T03:31:58.052Z,88.00
2019-04-05T03:34:27.402Z,87.80
2019-04-05T03:37:01.283Z,87.93
2019-04-05T03:39:33.321Z,87.91
2019-04-05T03:42:02.118Z,87.80
2019-04-05T03:44:38.359Z,87.74
2019-04-05T03:47:10.343Z,87.46
2019-04-05T03:49:39.230Z,87.67
2019-04-05T03:52:10.173Z,87.58
2019-04-05T03:54:40.301Z,87.60
2019-04-05T03:57:08.895Z,87.34
2019-04-05T03:59:42.590Z,87.33
2019-04-05T04:02:10.782Z,87.53
2019-04-05T04:04:39.441Z,87.22
2019-04-05T04:07:10.284Z,87.10
2019-04-05T04:09:42.024Z,87.11
2019-04-05T04:12:10.617Z,86.94
2019-04-05T04:14:39.185Z,87.22
2019-04-05T04:17:12.658Z,87.44
2019-04-05T04:19:40.651Z,87.50
2019-04-05T04:22:18.574Z,87.39
2019-04-05T04:24:50.733Z,87.17
2019-04-05T04:27:21.799Z,87.08
2019-04-05T04:29:55.399Z,86.72
2019-04-05T04:32:26.833Z,86.73
2019-04-05T04:35:00.208Z,86.81
2019-04-05T04:37:29.300Z,86.93
2019-04-05T04:39:59.920Z,86.63
2019-04-05T04:42:30.208Z,86.79
2019-04-05T04:45:11.399Z,86.75
2019-04-05T04:47:32.603Z,86.82
2019-04-05T04:50:07.011Z,86.92
2019-04-05T04:52:35.896Z,86.91
2019-04-05T04:55:06.878Z,86.79
2019-04-05T04:57:39.115Z,86.73
2019-04-05T05:00:11.768Z,87.11
2019-04-05T05:02:40.907Z,86.69
2019-04-05T05:05:10.185Z,87.02
2019-04-05T05:07:40.501Z,87.04
2019-04-05T05:10:13.944Z,86.69
2019-04-05T05:12:46.092Z,86.59
2019-04-05T05:15:16.325Z,86.57
2019-04-05T05:17:57.892Z,86.43
2019-04-05T05:20:18.338Z,86.31
2019-04-05T05:22:49.344Z,86.63
2019-04-05T05:25:18.292Z,86.47
2019-04-05T05:27:51.281Z,86.34
2019-04-05T05:30:22.469Z,86.40
2019-04-05T05:32:51.760Z,86.18
2019-04-05T05:35:22.117Z,86.39
2019-04-05T05:37:53.282Z,86.51
2019-04-05T05:40:34.689Z,86.16
2019-04-05T05:42:57.952Z,86.43
2019-04-05T05:45:26.544Z,86.41
2019-04-05T05:47:55.128Z,86.55
2019-04-05T05:50:43.444Z,86.70
2019-04-05T05:53:12.574Z,86.53
2019-04-05T05:55:44.838Z,86.50
2019-04-05T05:58:13.743Z,86.48
2019-04-05T06:00:44.640Z,86.72
2019-04-05T06:03:18.018Z,86.85
2019-04-05T06:06:03.575Z,86.43
2019-04-05T06:08:22.565Z,86.34
2019-04-05T06:10:52.494Z,87.07
2019-04-05T06:13:26.014Z,87.07
2019-04-05T06:15:56.653Z,87.28
2019-04-05T06:18:30.702Z,87.04
2019-04-05T06:20:59.874Z,86.85
2019-04-05T06:23:34.072Z,86.97
2019-04-05T06:26:01.509Z,87.34
2019-04-05T06:28:32.520Z,87.06
2019-04-05T06:31:04.466Z,86.93
2019-04-05T06:33:36.619Z,87.16
2019-04-05T06:36:07.388Z,87.54
2019-04-05T06:38:36.509Z,87.49
2019-04-05T06:41:06.539Z,87.59
2019-04-05T06:43:35.280Z,87.34
2019-04-05T06:46:04.017Z,87.54
2019-04-05T06:48:33.133Z,87.72
2019-04-05T06:51:03.486Z,87.72
2019-04-05T06:53:32.242Z,87.26
2019-04-05T06:56:05.955Z,87.41
2019-04-05T06:58:33.786Z,87.41
2019-04-05T07:01:02.304Z,87.51
2019-04-05T07:03:32.950Z,87.54
2019-04-05T07:06:05.183Z,87.37
2019-04-05T07:08:35.860Z,87.25
2019-04-05T07:11:04.440Z,86.98
2019-04-05T07:13:36.420Z,86.98
2019-04-05T07:16:05.263Z,87.08
2019-04-05T07:18:36.228Z,86.88
2019-04-05T07:21:08.046Z,87.00
2019-04-05T07:23:41.028Z,86.81
2019-04-05T07:26:14.731Z,86.60
2019-04-05T07:28:45.042Z,86.69
2019-04-05T07:31:16.029Z,86.68
2019-04-05T07:33:46.797Z,86.17
2019-04-05T07:36:20.192Z,86.23
2019-04-05T07:38:51.281Z,86.16
2019-04-05T07:41:19.852Z,85.88
2019-04-05T07:43:48.812Z,85.71
2019-04-05T07:46:17.955Z,85.66
2019-04-05T07:48:48.329Z,85.40
2019-04-05T07:51:16.886Z,85.28
2019-04-05T07:53:51.970Z,85.28
2019-04-05T07:56:22.007Z,84.96
2019-04-05T07:58:53.954Z,85.38
2019-04-05T08:01:22.905Z,85.31
2019-04-05T08:03:53.163Z,85.37
2019-04-05T08:06:22.130Z,85.54
2019-04-05T08:09:02.442Z,85.31
2019-04-05T08:11:33.285Z,85.27
2019-04-05T08:14:03.521Z,85.12
2019-04-05T08:16:40.624Z,84.57
2019-04-05T08:19:09.850Z,84.42
2019-04-05T08:21:40.446Z,84.06
2019-04-05T08:24:10.608Z,83.98
2019-04-05T08:26:40.847Z,83.80
2019-04-05T08:29:09.590Z,84.22
2019-04-05T08:31:42.166Z,84.21
2019-04-05T08:34:13.128Z,84.20
2019-04-05T08:36:42.107Z,83.39
2019-04-05T08:39:12.164Z,83.61
2019-04-05T08:41:43.282Z,83.28
2019-04-05T08:44:11.867Z,82.87
2019-04-05T08:46:43.999Z,83.31
2019-04-05T08:49:12.618Z,83.29
2019-04-05T08:51:41.568Z,82.88
2019-04-05T08:54:10.526Z,83.08
2019-04-05T08:56:41.703Z,82.46
2019-04-05T08:59:16.696Z,82.60
2019-04-05T09:01:46.670Z,82.60
2019-04-05T09:04:17.581Z,82.35
2019-04-05T09:06:50.041Z,82.31
2019-04-05T09:09:22.149Z,82.58
2019-04-05T09:11:54.231Z,82.63
2019-04-05T09:14:23.109Z,82.30
2019-04-05T09:16:53.036Z,82.11
2019-04-05T09:19:24.173Z,81.54
2019-04-05T09:21:57.560Z,81.94
2019-04-05T09:24:26.131Z,82.02
2019-04-05T09:26:56.812Z,81.87
2019-04-05T09:29:28.794Z,81.68
2019-04-05T09:31:58.130Z,81.44
2019-04-05T09:34:28.305Z,81.44
2019-04-05T09:36:58.936Z,81.01
2019-04-05T09:39:29.558Z,81.21
2019-04-05T09:42:01.265Z,81.59
2019-04-05T09:44:30.100Z,81.55
2019-04-05T09:47:01.035Z,81.44
2019-04-05T09:49:36.586Z,81.24
2019-04-05T09:52:03.587Z,81.18
2019-04-05T09:54:33.008Z,81.33
2019-04-05T09:57:03.767Z,81.11
2019-04-05T09:59:36.235Z,81.62
2019-04-05T10:02:08.207Z,81.60
2019-04-05T10:04:38.002Z,81.25
2019-04-05T10:07:08.822Z,81.11
2019-04-05T10:09:50.307Z,81.15
2019-04-05T10:12:18.209Z,81.09
2019-04-05T10:14:47.556Z,81.18
2019-04-05T10:17:19.156Z,81.49
2019-04-05T10:19:50.549Z,81.97
2019-04-05T10:22:20.737Z,81.42
2019-04-05T10:24:51.401Z,81.43
2019-04-05T10:27:22.972Z,81.14
2019-04-05T10:29:55.761Z,81.09
2019-04-05T10:32:25.981Z,80.76
2019-04-05T10:34:55.139Z,80.62
2019-04-05T10:37:29.306Z,81.39
2019-04-05T10:40:01.327Z,81.21
2019-04-05T10:42:37.507Z,80.99
2019-04-05T10:45:08.434Z,81.24
2019-04-05T10:47:37.196Z,81.03
2019-04-05T10:50:10.832Z,80.75
2019-04-05T10:52:41.186Z,80.79
2019-04-05T10:55:09.691Z,81.35
2019-04-05T10:57:45.220Z,81.20
2019-04-05T11:00:18.185Z,81.50
2019-04-05T11:02:47.123Z,81.25
2019-04-05T11:05:23.785Z,81.03
2019-04-05T11:07:52.698Z,81.18
2019-04-05T11:10:25.184Z,81.50
2019-04-05T11:12:54.146Z,81.50
2019-04-05T11:15:24.655Z,81.74
2019-04-05T11:17:56.745Z,81.74
2019-04-05T11:20:29.017Z,81.87
2019-04-05T11:23:01.030Z,82.14
2019-04-05T11:25:34.130Z,81.45
2019-04-05T11:28:04.996Z,80.83
2019-04-05T11:30:41.189Z,80.95
2019-04-05T11:33:10.094Z,80.83
2019-04-05T11:35:43.478Z,80.95
2019-04-05T11:38:14.402Z,81.40
2019-04-05T11:40:43.321Z,80.45
2019-04-05T11:43:17.220Z,80.79
2019-04-05T11:45:48.637Z,80.90
2019-04-05T11:48:18.097Z,80.47
2019-04-05T11:50:46.696Z,80.26
2019-04-05T11:53:21.781Z,80.39
2019-04-05T11:55:51.710Z,80.38
2019-04-05T11:58:20.436Z,80.15
2019-04-05T12:01:08.864Z,80.21
2019-04-05T12:03:38.573Z,80.31
2019-04-05T12:06:12.424Z,79.96
2019-04-05T12:08:43.311Z,80.20
2019-04-05T12:11:12.626Z,81.19
2019-04-05T12:13:42.925Z,80.56
2019-04-05T12:16:14.907Z,79.76
2019-04-05T12:18:43.800Z,79.55
2019-04-05T12:21:15.669Z,79.79
2019-04-05T12:23:50.671Z,80.52
2019-04-05T12:26:23.058Z,80.89
2019-04-05T12:28:54.811Z,80.67
2019-04-05T12:31:25.923Z,80.56
2019-04-05T12:33:54.471Z,80.65
2019-04-05T12:36:23.852Z,80.75
2019-04-05T12:38:54.508Z,80.67
2019-04-05T12:41:23.626Z,80.39
2019-04-05T12:43:54.714Z,80.24
2019-04-05T12:46:26.456Z,80.24
2019-04-05T12:48:55.369Z,80.46
2019-04-05T12:51:24.451Z,80.85
2019-04-05T12:53:56.774Z,80.90
2019-04-05T12:56:33.646Z,80.37
2019-04-05T12:59:06.220Z,80.77
2019-04-05T13:01:36.201Z,80.77
2019-04-05T13:04:06.516Z,80.48
2019-04-05T13:06:38.273Z,80.52
2019-04-05T13:09:10.813Z,80.97
2019-04-05T13:11:41.175Z,81.18
2019-04-05T13:14:11.126Z,81.30
2019-04-05T13:16:44.716Z,81.34
2019-04-05T13:19:15.145Z,81.10
2019-04-05T13:21:43.714Z,80.84
2019-04-05T13:24:15.533Z,80.80
2019-04-05T13:26:49.306Z,80.26
2019-04-05T13:29:21.678Z,79.78
2019-04-05T13:31:50.423Z,79.78
2019-04-05T13:34:25.632Z,79.67
2019-04-05T13:36:57.030Z,80.25
2019-04-05T13:39:27.519Z,80.03
2019-04-05T13:41:59.465Z,79.93
2019-04-05T13:44:34.253Z,79.97
2019-04-05T13:47:03.220Z,80.04
2019-04-05T13:49:35.416Z,80.35
2019-04-05T13:52:06.939Z,80.27
2019-04-05T13:54:35.551Z,80.40
2019-04-05T13:57:11.437Z,80.73
2019-04-05T13:59:44.435Z,80.55
2019-04-05T14:02:21.155Z,80.98
2019-04-05T14:04:49.654Z,81.27
2019-04-05T14:07:18.262Z,82.41
2019-04-05T14:09:46.840Z,82.41
2019-04-05T14:12:16.259Z,82.05
2019-04-05T14:14:51.295Z,81.70
2019-04-05T14:17:20.526Z,81.56
2019-04-05T14:19:49.569Z,82.25
2019-04-05T14:22:22.962Z,82.25
2019-04-05T14:24:56.457Z,82.94
2019-04-05T14:27:23.668Z,82.92
2019-04-05T14:29:52.372Z,82.70
2019-04-05T14:32:26.965Z,82.37
2019-04-05T14:34:57.477Z,82.56
2019-04-05T14:37:26.280Z,82.64
2019-04-05T14:39:54.818Z,82.44
2019-04-05T14:42:29.546Z,82.51
2019-04-05T14:44:59.457Z,82.38
2019-04-05T14:47:28.930Z,82.19
2019-04-05T14:50:00.915Z,82.46
2019-04-05T14:52:31.057Z,82.65
2019-04-05T14:55:01.950Z,82.70
2019-04-05T14:57:30.332Z,82.77
2019-04-05T15:00:02.377Z,81.80
2019-04-05T15:02:31.833Z,82.07
2019-04-05T15:05:04.801Z,81.52
2019-04-05T15:07:33.411Z,81.21
2019-04-05T15:10:07.901Z,81.55
2019-04-05T15:12:45.648Z,81.55
2019-04-05T15:15:14.442Z,81.97
2019-04-05T15:18:03.890Z,82.29
2019-04-05T15:20:34.891Z,82.34
2019-04-05T15:23:04.873Z,82.52
2019-04-05T15:25:36.977Z,82.14
2019-04-05T15:28:06.277Z,81.59
2019-04-05T15:30:37.050Z,81.54
2019-04-05T15:33:27.841Z,82.41
2019-04-05T15:36:02.945Z,82.69
2019-04-05T15:38:32.537Z,82.67
2019-04-05T15:41:01.269Z,81.92
2019-04-05T15:43:29.832Z,81.34
2019-04-05T15:45:58.374Z,80.43
2019-04-05T15:48:26.942Z,80.86
2019-04-05T15:50:59.315Z,80.94
2019-04-05T15:53:31.581Z,80.68
2019-04-05T15:56:03.873Z,80.90
2019-04-05T15:58:31.565Z,80.70
2019-04-05T16:01:04.144Z,80.93
2019-04-05T16:03:32.393Z,81.40
2019-04-05T16:06:01.972Z,82.05
2019-04-05T16:08:30.625Z,82.58
2019-04-05T16:10:59.185Z,83.12
2019-04-05T16:13:28.094Z,83.22
2019-04-05T16:15:58.179Z,83.00
2019-04-05T16:18:30.158Z,82.67
2019-04-05T16:20:59.114Z,83.03
2019-04-05T16:23:28.006Z,83.05
2019-04-05T16:26:00.267Z,83.11
2019-04-05T16:28:30.543Z,83.72
2019-04-05T16:31:00.687Z,83.29
2019-04-05T16:33:29.245Z,83.57
2019-04-05T16:35:59.050Z,83.89
2019-04-05T16:38:31.089Z,83.68
2019-04-05T16:40:59.860Z,83.84
2019-04-05T16:43:28.437Z,84.05
2019-04-05T16:45:57.012Z,84.65
2019-04-05T16:48:25.548Z,84.20
2019-04-05T16:50:55.511Z,84.40
2019-04-05T16:53:24.062Z,83.72
2019-04-05T16:55:52.683Z,83.72
2019-04-05T16:58:21.652Z,83.50
2019-04-05T17:00:51.453Z,83.58
2019-04-05T17:03:20.037Z,83.50
2019-04-05T17:05:50.077Z,83.70
2019-04-05T17:08:19.020Z,83.89
2019-04-05T17:10:49.183Z,83.89
2019-04-05T17:13:19.290Z,84.60
2019-04-05T17:15:49.547Z,84.60
2019-04-05T17:18:18.768Z,84.99
2019-04-05T17:20:49.688Z,84.83
2019-04-05T17:23:18.433Z,84.95
2019-04-05T17:25:50.414Z,85.00
2019-04-05T17:28:21.298Z,84.84
2019-04-05T17:30:51.573Z,85.23
2019-04-05T17:33:24.893Z,85.43
2019-04-05T17:35:53.956Z,85.40
2019-04-05T17:38:23.032Z,85.31
2019-04-05T17:41:00.024Z,86.03
2019-04-05T17:43:29.069Z,86.03
2019-04-05T17:45:59.327Z,85.74
2019-04-05T17:48:29.379Z,85.54
2019-04-05T17:51:01.023Z,85.48
2019-04-05T17:53:30.313Z,86.11
2019-04-05T17:56:04.311Z,86.02
2019-04-05T17:58:33.319Z,86.16
2019-04-05T18:01:01.909Z,86.01
2019-04-05T18:03:30.487Z,86.16
2019-04-05T18:05:59.069Z,86.23
2019-04-05T18:08:27.647Z,86.39
2019-04-05T18:10:58.517Z,86.66
2019-04-05T18:13:27.475Z,86.51
2019-04-05T18:15:56.298Z,86.87
2019-04-05T18:18:36.023Z,86.84
2019-04-05T18:21:06.303Z,87.11
2019-04-05T18:23:34.872Z,87.45
2019-04-05T18:26:03.867Z,87.13
2019-04-05T18:28:36.286Z,87.31
2019-04-05T18:31:05.230Z,87.24
2019-04-05T18:33:35.933Z,87.46
2019-04-05T18:36:11.768Z,87.48
2019-04-05T18:38:40.541Z,87.43
2019-04-05T18:41:09.115Z,87.63
2019-04-05T18:43:37.678Z,87.49
2019-04-05T18:46:08.471Z,87.21
2019-04-05T18:48:38.405Z,86.91
2019-04-05T18:51:23.900Z,87.07
2019-04-05T18:53:55.062Z,87.23
2019-04-05T18:56:28.351Z,87.50
2019-04-05T18:58:59.462Z,87.67
2019-04-05T19:01:30.813Z,87.63
2019-04-05T19:03:59.375Z,87.61
2019-04-05T19:06:28.601Z,87.44
2019-04-05T19:08:57.661Z,87.47
2019-04-05T19:11:28.192Z,87.55
2019-04-05T19:14:01.352Z,88.00
2019-04-05T19:16:27.082Z,87.77
2019-04-05T19:18:57.009Z,87.81
2019-04-05T19:21:27.772Z,87.95
2019-04-05T19:23:59.625Z,88.13
2019-04-05T19:26:28.206Z,88.22
2019-04-05T19:28:59.240Z,88.39
2019-04-05T19:49:05.963Z,88.51
2019-04-05T19:51:34.969Z,88.81
2019-04-05T19:54:03.544Z,88.57
2019-04-05T19:56:33.667Z,88.49
2019-04-05T19:59:02.229Z,88.44
2019-04-05T20:01:32.522Z,88.23
2019-04-05T20:04:01.799Z,88.23
2019-04-05T20:06:31.692Z,88.59
2019-04-05T20:09:00.433Z,88.52
2019-04-05T20:11:29.574Z,88.23
2019-04-05T20:14:00.108Z,88.50
2019-04-05T20:16:30.157Z,88.28
2019-04-05T20:18:58.727Z,88.10
2019-04-05T20:21:27.685Z,88.32
2019-04-05T20:23:58.557Z,88.67
2019-04-05T20:26:27.132Z,88.71
2019-04-05T20:28:55.673Z,88.77
2019-04-05T20:31:25.925Z,88.85
2019-04-05T20:33:56.154Z,89.12
2019-04-05T20:36:26.387Z,89.14
2019-04-05T20:38:58.108Z,89.12
2019-04-05T20:41:27.025Z,89.35
2019-04-05T20:43:55.612Z,89.28
2019-04-05T20:46:24.603Z,89.35
2019-04-05T20:48:53.400Z,89.34
2019-04-05T20:51:22.129Z,89.35
2019-04-05T20:53:52.369Z,89.28
2019-04-05T20:56:21.290Z,89.20
2019-04-05T20:58:50.002Z,89.55
2019-04-05T21:01:22.043Z,89.36
2019-04-05T21:03:50.818Z,89.02
2019-04-05T21:06:21.219Z,88.67
2019-04-05T21:08:51.281Z,88.92
2019-04-05T21:11:19.834Z,88.99
2019-04-05T21:13:48.747Z,89.13
2019-04-05T21:16:17.302Z,88.98
2019-04-05T21:18:45.889Z,89.09
2019-04-05T21:21:14.788Z,89.21
2019-04-05T21:23:43.388Z,89.32
2019-04-05T21:26:12.274Z,89.49
2019-04-05T21:28:40.858Z,89.73
2019-04-05T21:31:16.096Z,89.75
2019-04-05T21:33:44.690Z,89.48
2019-04-05T21:36:13.263Z,89.28
2019-04-05T21:38:41.935Z,89.22
2019-04-05T21:41:10.493Z,89.09
2019-04-05T21:43:39.445Z,89.22
2019-04-05T21:46:09.942Z,89.51
2019-04-05T21:48:38.683Z,89.61
2019-04-05T21:51:08.975Z,89.45
2019-04-05T21:53:39.223Z,89.36
2019-04-05T21:56:07.784Z,89.27
2019-04-05T21:58:37.038Z,89.15
2019-04-05T22:01:08.312Z,89.25
2019-04-05T22:03:38.471Z,89.36
2019-04-05T22:06:07.444Z,89.34
2019-04-05T22:08:39.322Z,89.25
2019-04-05T22:11:07.866Z,89.57
2019-04-05T22:13:36.479Z,89.54
2019-04-05T22:16:05.045Z,89.50
2019-04-05T22:18:33.630Z,89.22
2019-04-05T22:21:02.624Z,89.22
2019-04-05T22:23:32.693Z,89.26
2019-04-05T22:26:02.915Z,89.17
2019-04-05T22:28:31.493Z,89.10
2019-04-05T22:31:02.857Z,89.36
2019-04-05T22:33:31.393Z,89.38
2019-04-05T22:36:00.466Z,89.04
2019-04-05T22:38:29.406Z,88.98
2019-04-05T22:40:59.914Z,88.88
2019-04-05T22:43:31.894Z,89.08
2019-04-05T22:46:00.471Z,89.14
2019-04-05T22:48:29.033Z,89.06
2019-04-05T22:50:58.955Z,89.04
2019-04-05T22:53:27.852Z,89.28
2019-04-05T22:55:56.583Z,89.50
2019-04-05T22:58:26.829Z,89.56
2019-04-05T23:00:55.394Z,89.40
2019-04-05T23:03:27.560Z,89.53
2019-04-05T23:05:56.143Z,89.68
2019-04-05T23:08:24.724Z,89.86
2019-04-05T23:10:53.281Z,89.87
2019-04-05T23:13:25.041Z,89.89
2019-04-05T23:15:53.768Z,89.89
2019-04-05T23:18:22.560Z,89.80
2019-04-05T23:20:54.795Z,89.80
2019-04-05T23:23:23.440Z,89.78
2019-04-05T23:25:51.994Z,89.82
2019-04-05T23:28:20.533Z,89.71
2019-04-05T23:30:50.465Z,89.40
2019-04-05T23:33:19.646Z,89.40
2019-04-05T23:35:48.278Z,87.87
2019-04-05T23:38:18.732Z,87.46
2019-04-05T23:40:49.361Z,87.22
2019-04-05T23:43:19.392Z,87.48
2019-04-05T23:45:48.137Z,87.37
2019-04-05T23:48:18.059Z,87.31
2019-04-05T23:50:50.148Z,87.29
2019-04-05T23:53:19.223Z,87.46
2019-04-05T23:55:47.790Z,87.56
2019-04-05T23:58:16.336Z,87.52
